createdAt,value
2022-08-30T00:03:47.890Z,62.20
2022-08-30T00:07:51.254Z,62.80
2022-08-30T00:11:54.210Z,63.00
2022-08-30T00:15:57.932Z,62.60
2022-08-30T00:20:00.941Z,62.80
2022-08-30T00:24:05.102Z,62.70
2022-08-30T00:28:09.755Z,62.70
2022-08-30T00:32:12.703Z,62.80
2022-08-30T00:36:16.111Z,63.00
2022-08-30T00:40:27.137Z,63.10
2022-08-30T00:44:31.805Z,63.10
2022-08-30T00:48:40.769Z,63.10
2022-08-30T00:52:47.984Z,63.30
2022-08-30T00:56:51.180Z,63.50
2022-08-30T01:00:56.933Z,63.80
2022-08-30T01:05:02.435Z,64.30
2022-08-30T01:09:06.101Z,63.90
2022-08-30T01:13:10.770Z,64.10
2022-08-30T01:17:14.435Z,64.50
2022-08-30T01:21:50.161Z,64.60
2022-08-30T01:25:54.377Z,64.20
2022-08-30T01:29:58.982Z,65.30
2022-08-30T01:34:02.618Z,65.40
2022-08-30T01:38:05.584Z,66.00
2022-08-30T01:42:08.513Z,66.00
2022-08-30T01:46:12.324Z,66.30
2022-08-30T01:50:15.730Z,66.90
2022-08-30T01:54:19.021Z,66.60
2022-08-30T01:58:23.376Z,66.80
2022-08-30T02:02:29.374Z,67.30
2022-08-30T02:06:32.593Z,67.80
2022-08-30T02:10:35.698Z,67.50
2022-08-30T02:14:39.323Z,67.90
2022-08-30T02:18:42.626Z,67.90
2022-08-30T02:22:48.167Z,67.80
2022-08-30T02:26:55.633Z,67.60
2022-08-30T02:30:58.718Z,67.30
2022-08-30T02:35:01.743Z,66.80
2022-08-30T02:39:04.619Z,66.20
2022-08-30T02:43:07.709Z,66.20
2022-08-30T02:47:10.727Z,66.30
2022-08-30T02:51:14.601Z,66.50
2022-08-30T02:55:18.317Z,66.90
2022-08-30T02:59:21.194Z,66.80
2022-08-30T03:03:24.184Z,67.00
2022-08-30T03:07:27.545Z,67.30
2022-08-30T03:11:31.373Z,67.70
2022-08-30T03:15:36.108Z,67.80
2022-08-30T03:19:38.995Z,68.30
2022-08-30T03:23:42.651Z,68.40
2022-08-30T03:27:45.513Z,68.80
2022-08-30T03:31:53.350Z,68.60
2022-08-30T03:35:56.698Z,68.70
2022-08-30T03:39:59.881Z,68.80
2022-08-30T03:44:03.235Z,69.20
2022-08-30T03:48:07.557Z,69.40
2022-08-30T03:52:10.473Z,69.50
2022-08-30T03:56:13.658Z,69.20
2022-08-30T04:00:17.752Z,69.60
2022-08-30T04:04:21.221Z,69.90
2022-08-30T04:08:25.644Z,70.20
2022-08-30T04:12:28.514Z,70.20
2022-08-30T04:16:31.376Z,70.60
2022-08-30T04:20:34.397Z,70.70
2022-08-30T04:24:38.480Z,70.60
2022-08-30T04:28:41.459Z,70.70
2022-08-30T04:32:45.731Z,71.00
2022-08-30T04:36:49.543Z,71.50
2022-08-30T04:40:52.810Z,71.80
2022-08-30T04:44:57.079Z,72.00
2022-08-30T04:48:59.975Z,72.10
2022-08-30T04:53:02.900Z,71.90
2022-08-30T04:57:07.146Z,71.80
2022-08-30T05:01:18.791Z,72.00
2022-08-30T05:05:39.903Z,71.90
2022-08-30T05:09:42.818Z,72.00
2022-08-30T05:13:46.014Z,71.90
2022-08-30T05:17:49.234Z,72.00
2022-08-30T05:21:55.231Z,72.40
2022-08-30T05:26:07.736Z,72.10
2022-08-30T05:30:11.648Z,72.30
2022-08-30T05:34:17.762Z,72.30
2022-08-30T05:38:43.483Z,72.30
2022-08-30T05:43:05.104Z,72.40
2022-08-30T05:47:46.425Z,70.60
2022-08-30T05:52:44.826Z,72.10
2022-08-30T05:58:01.798Z,72.70
2022-08-30T06:23:20.650Z,71.90
2022-08-30T06:27:31.561Z,71.40
2022-08-30T06:31:34.724Z,71.00
2022-08-30T06:35:46.776Z,70.70
2022-08-30T06:39:57.549Z,69.00
2022-08-30T06:44:02.814Z,67.80
2022-08-30T06:48:05.809Z,66.90
2022-08-30T06:52:08.724Z,66.70
2022-08-30T06:56:16.665Z,66.20
2022-08-30T07:00:19.854Z,66.00
2022-08-30T07:04:22.885Z,65.60
2022-08-30T07:08:26.128Z,64.90
2022-08-30T07:12:28.949Z,64.60
2022-08-30T07:16:33.070Z,64.90
2022-08-30T07:20:40.289Z,64.90
2022-08-30T07:24:44.577Z,64.90
2022-08-30T07:28:48.013Z,64.30
2022-08-30T07:32:55.239Z,62.80
2022-08-30T07:37:00.065Z,62.30
2022-08-30T07:41:02.956Z,61.70
2022-08-30T07:45:06.263Z,61.10
2022-08-30T07:49:11.040Z,60.10
2022-08-30T07:53:14.882Z,59.40
2022-08-30T07:57:21.039Z,58.50
2022-08-30T08:01:29.038Z,57.70
2022-08-30T08:05:45.174Z,59.10
2022-08-30T08:09:48.110Z,56.70
2022-08-30T08:13:53.960Z,56.30
2022-08-30T08:17:57.989Z,56.30
2022-08-30T08:22:20.530Z,55.80
2022-08-30T08:26:24.310Z,55.80
2022-08-30T08:30:27.163Z,56.10
2022-08-30T08:34:30.913Z,55.10
2022-08-30T08:38:35.081Z,55.10
2022-08-30T08:42:51.909Z,54.60
2022-08-30T08:47:15.819Z,54.00
2022-08-30T08:51:41.673Z,53.80
2022-08-30T08:59:52.517Z,53.70
2022-08-30T09:04:05.712Z,51.80
2022-08-30T09:08:14.141Z,51.60
2022-08-30T09:12:17.159Z,51.40
2022-08-30T09:16:44.923Z,51.60
2022-08-30T09:20:49.786Z,52.00
2022-08-30T09:25:21.329Z,51.20
2022-08-30T09:29:24.216Z,50.30
2022-08-30T09:33:27.067Z,50.00
2022-08-30T09:37:54.779Z,49.50
2022-08-30T09:42:23.939Z,49.20
2022-08-30T09:47:32.208Z,48.00
2022-08-30T09:51:56.321Z,46.80
2022-08-30T09:56:15.760Z,47.70
2022-08-30T10:01:08.718Z,46.90
2022-08-30T10:06:08.414Z,46.60
2022-08-30T10:10:33.296Z,46.00
2022-08-30T10:15:07.722Z,45.10
2022-08-30T10:19:20.706Z,44.00
2022-08-30T10:23:49.303Z,44.40
2022-08-30T10:28:11.183Z,42.20
2022-08-30T10:37:02.554Z,41.90
2022-08-30T10:41:31.668Z,42.00
2022-08-30T10:45:40.822Z,42.00
2022-08-30T10:49:50.291Z,39.50
2022-08-30T10:54:37.016Z,40.40
2022-08-30T10:58:44.574Z,39.80
2022-08-30T11:03:06.887Z,40.30
2022-08-30T11:08:00.398Z,40.00
2022-08-30T11:12:35.156Z,40.50
2022-08-30T11:16:44.860Z,39.90
2022-08-30T11:20:50.464Z,38.00
2022-08-30T11:25:09.737Z,38.00
2022-08-30T11:29:37.551Z,37.80
2022-08-30T11:33:46.518Z,38.50
2022-08-30T11:38:04.551Z,38.90
2022-08-30T11:48:54.589Z,37.90
2022-08-30T11:59:01.648Z,39.30
2022-08-30T12:00:02.494Z,39.50
2022-08-30T17:54:58.377Z,44.80
2022-08-30T17:59:01.395Z,44.90
2022-08-30T18:03:04.724Z,45.20
2022-08-30T18:07:11.916Z,45.40
2022-08-30T18:11:15.249Z,45.80
2022-08-30T18:15:18.261Z,45.80
2022-08-30T18:19:21.679Z,46.20
2022-08-30T18:23:24.678Z,46.40
2022-08-30T18:27:28.301Z,46.70
2022-08-30T18:31:31.467Z,46.20
2022-08-30T18:35:36.368Z,46.20
2022-08-30T18:39:39.751Z,46.40
2022-08-30T18:43:44.835Z,46.50
2022-08-30T18:47:47.848Z,46.70
2022-08-30T18:51:50.721Z,47.20
2022-08-30T18:55:54.129Z,47.50
2022-08-30T18:59:57.670Z,47.40
2022-08-30T19:04:02.152Z,47.90
2022-08-30T19:08:06.551Z,47.90
2022-08-30T19:12:09.777Z,47.90
2022-08-30T19:16:14.841Z,48.50
2022-08-30T19:20:21.030Z,48.50
2022-08-30T19:24:23.905Z,49.00
2022-08-30T19:28:27.068Z,49.50
2022-08-30T19:32:30.079Z,49.90
2022-08-30T19:36:33.891Z,50.30
2022-08-30T19:40:36.895Z,50.50
2022-08-30T19:44:39.772Z,50.70
2022-08-30T19:48:43.532Z,51.00
2022-08-30T19:52:53.417Z,50.90
2022-08-30T19:56:57.308Z,51.50
2022-08-30T20:01:10.627Z,51.60
2022-08-30T20:05:16.120Z,52.10
2022-08-30T20:09:19.011Z,51.90
2022-08-30T20:13:24.903Z,52.40
2022-08-30T20:17:42.334Z,52.80
2022-08-30T20:21:53.610Z,53.10
2022-08-30T20:25:57.659Z,52.50
2022-08-30T20:30:00.429Z,53.10
2022-08-30T20:34:04.542Z,53.40
2022-08-30T20:38:07.447Z,54.30
2022-08-30T20:42:10.263Z,54.40
2022-08-30T20:46:18.960Z,55.20
2022-08-30T20:50:21.952Z,56.00
2022-08-30T20:54:24.699Z,56.40
2022-08-30T20:58:28.121Z,57.00
2022-08-30T21:02:31.542Z,57.70
2022-08-30T21:06:37.501Z,57.80
2022-08-30T21:10:41.167Z,57.50
2022-08-30T21:14:44.110Z,58.00
2022-08-30T21:18:47.105Z,58.60
2022-08-30T21:22:49.874Z,58.60
2022-08-30T21:26:54.352Z,58.70
2022-08-30T21:31:13.495Z,58.20
2022-08-30T21:35:34.657Z,58.20
2022-08-30T21:39:37.431Z,58.60
2022-08-30T21:43:40.149Z,58.30
2022-08-30T21:47:43.024Z,58.70
2022-08-30T21:51:47.665Z,58.70
2022-08-30T21:55:50.433Z,58.80
2022-08-30T21:59:54.725Z,59.10
2022-08-30T22:04:00.147Z,59.30
2022-08-30T22:08:03.390Z,59.70
2022-08-30T22:12:06.977Z,60.10
2022-08-30T22:16:12.354Z,60.80
2022-08-30T22:20:18.481Z,61.20
2022-08-30T22:24:22.438Z,61.60
2022-08-30T22:28:25.472Z,61.80
2022-08-30T22:32:28.644Z,62.30
2022-08-30T22:36:34.556Z,62.30
2022-08-30T22:40:37.651Z,62.40
2022-08-30T22:44:40.525Z,62.70
2022-08-30T22:48:46.821Z,62.70
2022-08-30T22:52:49.595Z,63.00
2022-08-30T22:56:52.685Z,62.90
2022-08-30T23:00:56.418Z,63.10
2022-08-30T23:05:00.585Z,63.20
2022-08-30T23:09:06.371Z,63.30
2022-08-30T23:13:09.157Z,63.40
2022-08-30T23:17:11.959Z,63.40
2022-08-30T23:21:21.879Z,63.40
2022-08-30T23:25:51.970Z,63.70
2022-08-30T23:30:13.648Z,63.70
2022-08-30T23:34:35.120Z,64.00
2022-08-30T23:38:57.273Z,64.30
2022-08-30T23:43:18.577Z,64.40
2022-08-30T23:47:40.010Z,64.90
2022-08-30T23:52:01.166Z,64.90
2022-08-30T23:56:22.584Z,64.90
